Time;durP1;ratioP1;P1;durP2;ratioP2;P2;SDS_P1;SDS_P2;PMS_P1;PMS_P2;Temp;Humidity;BMP_temperature;BMP_pressure;BME280_temperature;BME280_humidity;BME280_pressure;Samples;Min_cycle;Max_cycle;Signal;HPM_P1;HPM_P2
2022/10/17 00:00:17;;;;;;;8.80;8.10;;;13.30;99.90;;;;;;4945410;28;20195;-81
2022/10/17 00:02:45;;;;;;;9.03;8.33;;;13.30;99.90;;;;;;4944208;29;20191;-80
2022/10/17 00:05:12;;;;;;;9.23;8.53;;;13.30;99.90;;;;;;4921487;29;20772;-79
2022/10/17 00:07:39;;;;;;;8.30;7.57;;;13.30;99.90;;;;;;4927701;29;20214;-80
2022/10/17 00:10:07;;;;;;;8.50;7.80;;;13.30;99.90;;;;;;4927773;29;20202;-80
2022/10/17 00:12:35;;;;;;;8.33;7.63;;;13.20;99.90;;;;;;4947939;28;20585;-81
2022/10/17 00:15:04;;;;;;;8.10;7.50;;;13.20;99.90;;;;;;4930977;29;20199;-81
2022/10/17 00:17:31;;;;;;;8.57;7.97;;;13.20;99.90;;;;;;4946888;28;20226;-79
2022/10/17 00:20:00;;;;;;;9.50;8.70;;;13.20;99.90;;;;;;4946968;28;20250;-82
2022/10/17 00:22:28;;;;;;;10.00;9.30;;;13.20;99.90;;;;;;4922222;29;20230;-80
2022/10/17 00:24:54;;;;;;;9.13;8.43;;;13.20;99.90;;;;;;4922269;29;20192;-79
2022/10/17 00:27:21;;;;;;;9.37;8.57;;;13.10;99.90;;;;;;4949539;28;20700;-80
2022/10/17 00:29:49;;;;;;;9.63;8.87;;;13.10;99.90;;;;;;4929534;29;20203;-81
2022/10/17 00:32:16;;;;;;;9.17;8.47;;;13.10;99.90;;;;;;4925280;28;20206;-81
2022/10/17 00:34:43;;;;;;;8.80;8.20;;;13.10;99.90;;;;;;4931519;29;20271;-81
2022/10/17 00:37:11;;;;;;;10.80;10.00;;;13.00;99.90;;;;;;4922801;28;20310;-81
2022/10/17 00:39:38;;;;;;;11.33;10.57;;;13.00;99.90;;;;;;4921871;29;20206;-80
2022/10/17 00:42:05;;;;;;;12.60;11.70;;;12.90;99.90;;;;;;4925648;29;20207;-80
2022/10/17 00:45:09;;;;;;;11.80;11.00;;;12.90;99.90;;;;;;4928698;29;20203;-80
2022/10/17 00:47:36;;;;;;;11.93;11.13;;;12.80;99.90;;;;;;4923018;29;20281;-80
2022/10/17 00:50:04;;;;;;;10.20;9.50;;;12.80;99.90;;;;;;4936010;29;20208;-80
2022/10/17 00:52:34;;;;;;;9.63;8.93;;;12.80;99.90;;;;;;4929551;29;20210;-80
2022/10/17 00:55:08;;;;;;;10.73;9.83;;;12.80;99.90;;;;;;4925728;29;20199;-80
2022/10/17 00:57:35;;;;;;;11.87;10.97;;;12.70;99.90;;;;;;4929438;28;20225;-80
2022/10/17 01:00:06;;;;;;;11.03;10.33;;;12.60;99.90;;;;;;4921545;29;20212;-79
2022/10/17 01:02:35;;;;;;;10.93;10.13;;;12.60;99.90;;;;;;4923300;29;20198;-80
2022/10/17 01:05:02;;;;;;;10.27;9.17;;;12.50;99.90;;;;;;4923070;29;20203;-81
2022/10/17 01:07:30;;;;;;;9.30;8.57;;;12.40;99.90;;;;;;4921069;29;20218;-80
2022/10/17 01:09:58;;;;;;;10.73;10.03;;;12.40;99.90;;;;;;4946264;28;20194;-80
2022/10/17 01:12:31;;;;;;;12.60;11.60;;;12.40;99.90;;;;;;4921089;29;20728;-80
2022/10/17 01:15:09;;;;;;;12.17;11.37;;;12.40;99.90;;;;;;4946272;28;20210;-82
2022/10/17 01:17:52;;;;;;;9.10;8.30;;;12.30;99.90;;;;;;4928962;28;20273;-80
2022/10/17 01:20:53;;;;;;;5.73;5.23;;;12.20;99.90;;;;;;4923156;28;20697;-80
2022/10/17 01:23:36;;;;;;;5.80;4.67;;;12.20;99.90;;;;;;4931268;29;20206;-80
2022/10/17 01:26:19;;;;;;;4.93;4.43;;;12.20;99.90;;;;;;4932086;29;20210;-79
2022/10/17 01:29:10;;;;;;;5.70;4.37;;;12.20;99.90;;;;;;4934910;28;20229;-80
2022/10/17 01:31:45;;;;;;;7.67;4.60;;;12.20;99.90;;;;;;4929890;28;20260;-79
2022/10/17 01:34:18;;;;;;;5.37;4.60;;;12.20;99.90;;;;;;4923053;29;20244;-80
2022/10/17 01:36:50;;;;;;;6.77;6.20;;;12.10;99.90;;;;;;4921884;29;20231;-79
2022/10/17 01:39:24;;;;;;;8.33;5.50;;;12.10;99.90;;;;;;4923900;29;20210;-80
2022/10/17 01:41:56;;;;;;;8.03;7.30;;;12.10;99.90;;;;;;4925948;29;20207;-79
2022/10/17 01:44:29;;;;;;;6.10;5.53;;;12.00;99.90;;;;;;4949575;28;20197;-80
2022/10/17 01:47:04;;;;;;;10.10;9.30;;;11.90;99.90;;;;;;4925183;29;20225;-80
2022/10/17 01:49:34;;;;;;;12.70;11.87;;;11.80;99.90;;;;;;4922230;28;20206;-80
2022/10/17 01:52:06;;;;;;;11.63;10.73;;;11.70;99.90;;;;;;4931885;29;20578;-80
2022/10/17 01:54:40;;;;;;;14.00;12.80;;;11.70;99.90;;;;;;4924884;29;20225;-79
2022/10/17 01:57:13;;;;;;;13.00;12.03;;;11.60;99.90;;;;;;4923585;29;20230;-80
2022/10/17 01:59:44;;;;;;;12.67;11.77;;;11.60;99.90;;;;;;4930634;29;20205;-80
2022/10/17 02:02:16;;;;;;;12.57;11.60;;;11.60;99.90;;;;;;4932528;29;20640;-80
2022/10/17 02:04:43;;;;;;;12.43;11.57;;;11.50;99.90;;;;;;4923179;29;20201;-79
2022/10/17 02:07:12;;;;;;;12.80;11.90;;;11.50;99.90;;;;;;4923024;29;20230;-80
2022/10/17 02:09:39;;;;;;;9.53;8.57;;;11.60;99.90;;;;;;4927436;29;20213;-80
2022/10/17 02:12:26;;;;;;;8.73;8.03;;;11.60;99.90;;;;;;4928488;29;20194;-81
2022/10/17 02:15:06;;;;;;;9.40;8.70;;;11.60;99.90;;;;;;4937778;29;20621;-79
2022/10/17 02:17:47;;;;;;;9.60;8.90;;;11.50;99.90;;;;;;4943458;28;20738;-80
2022/10/17 02:20:23;;;;;;;9.83;9.10;;;11.50;99.90;;;;;;4931104;29;20596;-80
2022/10/17 02:22:56;;;;;;;9.83;9.13;;;11.50;99.90;;;;;;4927680;29;20212;-81
2022/10/17 02:25:31;;;;;;;9.50;8.80;;;11.50;99.90;;;;;;4928312;29;20215;-80
2022/10/17 02:28:04;;;;;;;10.70;9.77;;;11.50;99.90;;;;;;4945579;29;20279;-80
2022/10/17 02:30:36;;;;;;;12.33;9.30;;;11.40;99.90;;;;;;4928652;29;20209;-80
2022/10/17 02:33:11;;;;;;;9.33;8.67;;;11.40;99.90;;;;;;4930392;29;20208;-80
2022/10/17 02:35:42;;;;;;;10.57;9.67;;;11.40;99.90;;;;;;4922025;29;20253;-80
2022/10/17 02:38:12;;;;;;;9.73;8.97;;;11.30;99.90;;;;;;4921482;29;20205;-80
2022/10/17 02:40:40;;;;;;;10.53;9.83;;;11.40;99.90;;;;;;4926343;29;20210;-80
2022/10/17 02:43:08;;;;;;;9.73;9.03;;;11.40;99.90;;;;;;4920526;29;20631;-82
2022/10/17 02:45:37;;;;;;;9.60;8.60;;;11.40;99.90;;;;;;4929889;28;20239;-79
2022/10/17 02:48:09;;;;;;;9.53;8.73;;;11.40;99.90;;;;;;4928201;29;20256;-79
2022/10/17 02:50:44;;;;;;;8.63;8.03;;;11.40;99.90;;;;;;4920906;29;20203;-78
2022/10/17 02:53:15;;;;;;;9.03;8.27;;;11.40;99.90;;;;;;4940730;28;20551;-79
2022/10/17 02:55:51;;;;;;;9.07;8.27;;;11.40;99.90;;;;;;4933492;29;20789;-79
2022/10/17 02:58:21;;;;;;;8.13;7.53;;;11.40;99.90;;;;;;4934421;29;20211;-81
2022/10/17 03:00:48;;;;;;;8.90;8.20;;;11.40;99.90;;;;;;4924529;29;20290;-80
2022/10/17 03:03:22;;;;;;;10.13;8.30;;;11.40;99.90;;;;;;4929093;29;20200;-79
2022/10/17 03:05:49;;;;;;;10.13;9.30;;;11.30;99.90;;;;;;4924903;29;20258;-80
2022/10/17 03:08:16;;;;;;;10.00;9.30;;;11.20;99.90;;;;;;4927714;29;20231;-80
2022/10/17 03:10:43;;;;;;;11.27;10.47;;;11.10;99.90;;;;;;4924623;29;20208;-79
2022/10/17 03:13:10;;;;;;;10.47;9.67;;;11.00;99.90;;;;;;4926418;29;20211;-80
2022/10/17 03:15:40;;;;;;;9.80;9.00;;;11.00;99.90;;;;;;4930849;29;20596;-80
2022/10/17 03:18:07;;;;;;;11.17;10.20;;;10.90;99.90;;;;;;4920047;29;20295;-83
2022/10/17 03:20:35;;;;;;;10.30;9.50;;;10.90;99.90;;;;;;4922430;29;20216;-83
2022/10/17 03:23:02;;;;;;;11.80;10.90;;;10.90;99.90;;;;;;4947953;28;20207;-79
2022/10/17 03:25:29;;;;;;;10.40;9.47;;;10.90;99.90;;;;;;4944657;28;20199;-80
2022/10/17 03:27:59;;;;;;;13.47;12.37;;;10.90;99.90;;;;;;4926197;29;20230;-82
2022/10/17 03:30:26;;;;;;;13.97;12.97;;;10.90;99.90;;;;;;4920346;28;20667;-80
2022/10/17 03:32:53;;;;;;;13.67;12.57;;;10.90;99.90;;;;;;4919718;29;20222;-79
2022/10/17 03:35:20;;;;;;;13.60;12.70;;;10.90;99.90;;;;;;4930154;29;20247;-79
2022/10/17 03:37:51;;;;;;;8.80;6.33;;;10.80;99.90;;;;;;4928755;29;20251;-80
2022/10/17 03:40:21;;;;;;;12.80;6.53;;;10.80;99.90;;;;;;4925344;29;20752;-79
2022/10/17 03:42:48;;;;;;;6.93;6.33;;;10.80;99.90;;;;;;4925504;29;20218;-81
2022/10/17 03:45:16;;;;;;;8.07;7.47;;;10.80;99.90;;;;;;4924467;29;20204;-79
2022/10/17 03:47:43;;;;;;;7.50;6.80;;;10.70;99.90;;;;;;4925963;29;20204;-78
2022/10/17 03:50:10;;;;;;;7.10;6.50;;;10.80;99.90;;;;;;4947668;29;20234;-78
2022/10/17 03:52:38;;;;;;;7.27;6.67;;;10.80;99.90;;;;;;4926111;28;20191;-78
2022/10/17 03:55:07;;;;;;;8.10;7.30;;;10.80;99.90;;;;;;4943817;29;20219;-80
2022/10/17 03:57:35;;;;;;;8.93;6.67;;;10.70;99.90;;;;;;4919030;29;20214;-80
2022/10/17 04:00:05;;;;;;;8.73;6.57;;;10.70;99.90;;;;;;4917945;29;20208;-79
2022/10/17 04:02:41;;;;;;;7.50;6.80;;;10.60;99.90;;;;;;4949290;28;20556;-78
2022/10/17 04:05:10;;;;;;;8.50;7.07;;;10.60;99.90;;;;;;4930588;29;20628;-78
2022/10/17 04:07:37;;;;;;;11.73;10.83;;;10.70;99.90;;;;;;4921147;29;20224;-79
2022/10/17 04:10:07;;;;;;;14.67;13.53;;;10.60;99.90;;;;;;4919740;29;20211;-78
2022/10/17 04:12:34;;;;;;;14.67;13.70;;;10.60;99.90;;;;;;4926141;28;20736;-79
2022/10/17 04:15:01;;;;;;;15.40;14.30;;;10.60;99.90;;;;;;4943146;29;20221;-79
2022/10/17 04:17:30;;;;;;;8.40;7.60;;;10.60;99.90;;;;;;4925917;29;20704;-79
2022/10/17 04:19:58;;;;;;;8.63;7.83;;;10.60;99.90;;;;;;4926657;29;20684;-78
2022/10/17 04:22:25;;;;;;;8.97;7.30;;;10.60;99.90;;;;;;4944899;28;20214;-78
2022/10/17 04:24:52;;;;;;;8.90;7.20;;;10.50;99.90;;;;;;4922628;29;20211;-79
2022/10/17 04:27:35;;;;;;;12.93;11.77;;;10.50;99.90;;;;;;4917938;29;20294;-79
2022/10/17 04:30:02;;;;;;;11.43;10.53;;;10.50;99.90;;;;;;4918987;29;20833;-79
2022/10/17 04:32:32;;;;;;;14.23;13.10;;;10.50;99.90;;;;;;4925867;29;20199;-79
2022/10/17 04:35:08;;;;;;;8.57;7.67;;;10.50;99.90;;;;;;4919661;29;20225;-80
2022/10/17 04:37:35;;;;;;;8.47;7.67;;;10.50;99.90;;;;;;4928267;28;20222;-78
2022/10/17 04:40:09;;;;;;;8.60;7.80;;;10.50;99.90;;;;;;4918589;29;20250;-79
2022/10/17 04:42:38;;;;;;;8.23;7.30;;;10.50;99.90;;;;;;4944673;28;20612;-78
2022/10/17 04:45:06;;;;;;;7.40;6.80;;;10.40;99.90;;;;;;4920200;29;20191;-78
2022/10/17 04:47:33;;;;;;;8.10;7.33;;;10.40;99.90;;;;;;4929454;29;20222;-79
2022/10/17 04:50:00;;;;;;;7.90;7.20;;;10.40;99.90;;;;;;4922032;29;20235;-78
2022/10/17 04:52:27;;;;;;;10.77;10.03;;;10.40;99.90;;;;;;4929233;29;20202;-79
2022/10/17 04:54:54;;;;;;;12.37;11.47;;;10.50;99.90;;;;;;4922425;29;20286;-79
2022/10/17 04:57:21;;;;;;;11.63;10.73;;;10.50;99.90;;;;;;4924050;29;20270;-78
2022/10/17 05:00:10;;;;;;;10.90;10.00;;;10.50;99.90;;;;;;4925682;29;20207;-79
2022/10/17 05:02:51;;;;;;;12.13;10.80;;;10.40;99.90;;;;;;4926321;29;20217;-78
2022/10/17 05:05:20;;;;;;;10.70;9.67;;;10.40;99.90;;;;;;4927011;29;20215;-79
2022/10/17 05:07:50;;;;;;;11.60;10.80;;;10.50;99.90;;;;;;4927961;29;20191;-78
2022/10/17 05:10:19;;;;;;;12.10;11.10;;;10.40;99.90;;;;;;4922453;28;20604;-78
2022/10/17 05:12:49;;;;;;;12.30;11.40;;;10.40;99.90;;;;;;4929184;29;20267;-80
2022/10/17 05:15:19;;;;;;;12.10;11.23;;;10.40;99.90;;;;;;4923546;29;20685;-79
2022/10/17 05:17:46;;;;;;;12.13;11.03;;;10.30;99.90;;;;;;4923223;29;20259;-78
2022/10/17 05:20:13;;;;;;;12.30;8.60;;;10.30;99.90;;;;;;4930339;29;20210;-79
2022/10/17 05:22:41;;;;;;;12.13;11.13;;;10.30;99.90;;;;;;4927590;29;20692;-79
2022/10/17 05:25:09;;;;;;;12.67;11.47;;;10.30;99.90;;;;;;4923559;29;20203;-78
2022/10/17 05:27:37;;;;;;;12.17;10.97;;;10.30;99.90;;;;;;4928978;29;20289;-79
2022/10/17 05:30:04;;;;;;;8.47;7.43;;;10.30;99.90;;;;;;4921141;29;20199;-78
2022/10/17 05:32:36;;;;;;;7.47;6.70;;;10.30;99.90;;;;;;4933970;29;20191;-79
2022/10/17 05:35:03;;;;;;;7.43;6.73;;;10.30;99.90;;;;;;4928818;29;20242;-79
2022/10/17 05:37:32;;;;;;;8.50;7.63;;;10.30;99.90;;;;;;4945805;28;20207;-78
2022/10/17 05:40:00;;;;;;;8.83;7.97;;;10.30;99.90;;;;;;4924470;29;20227;-79
2022/10/17 05:42:29;;;;;;;8.57;6.57;;;10.30;99.90;;;;;;4926318;29;20673;-80
2022/10/17 05:44:57;;;;;;;7.73;7.03;;;10.30;99.90;;;;;;4927012;29;20352;-77
2022/10/17 05:47:26;;;;;;;8.10;7.30;;;10.30;99.90;;;;;;4926603;29;20211;-78
2022/10/17 05:49:54;;;;;;;8.07;7.40;;;10.30;99.90;;;;;;4921455;29;20209;-78
2022/10/17 05:52:27;;;;;;;8.33;7.43;;;10.30;99.90;;;;;;4928966;29;20285;-78
2022/10/17 05:55:02;;;;;;;7.70;7.00;;;10.40;99.90;;;;;;4923979;29;20225;-78
2022/10/17 05:57:29;;;;;;;9.80;7.70;;;10.40;99.90;;;;;;4949286;28;20218;-78
2022/10/17 05:59:57;;;;;;;7.83;6.70;;;10.40;99.90;;;;;;4925863;29;20196;-80
2022/10/17 06:02:24;;;;;;;7.97;7.27;;;10.40;99.90;;;;;;4947565;28;20675;-79
2022/10/17 06:04:51;;;;;;;11.87;10.67;;;10.50;99.90;;;;;;4921008;29;20195;-79
2022/10/17 06:07:22;;;;;;;8.83;7.33;;;10.50;99.90;;;;;;4922796;29;20219;-78
2022/10/17 06:09:49;;;;;;;10.20;9.23;;;10.50;99.90;;;;;;4919736;29;20207;-78
2022/10/17 06:12:16;;;;;;;11.23;9.97;;;10.50;99.90;;;;;;4928280;29;20746;-79
2022/10/17 06:14:44;;;;;;;8.83;6.93;;;10.60;99.90;;;;;;4927137;29;20215;-78
2022/10/17 06:17:12;;;;;;;7.63;6.93;;;10.70;99.90;;;;;;4921183;29;20227;-78
2022/10/17 06:19:40;;;;;;;7.30;6.60;;;10.80;99.90;;;;;;4923519;28;20294;-79
2022/10/17 06:22:07;;;;;;;9.90;9.10;;;10.80;99.90;;;;;;4921134;29;20219;-79
2022/10/17 06:24:36;;;;;;;9.97;9.07;;;10.80;99.90;;;;;;4930365;29;20198;-79
2022/10/17 06:27:05;;;;;;;9.30;8.60;;;10.90;99.90;;;;;;4924490;29;20270;-78
2022/10/17 06:29:32;;;;;;;10.47;9.47;;;10.90;99.90;;;;;;4927561;29;20228;-80
2022/10/17 06:31:58;;;;;;;9.50;8.70;;;11.00;99.90;;;;;;4920396;29;20278;-78
2022/10/17 06:34:26;;;;;;;6.43;5.83;;;11.00;99.90;;;;;;4930644;29;20242;-79
2022/10/17 06:36:54;;;;;;;8.20;7.40;;;11.10;99.90;;;;;;4931588;29;20245;-79
2022/10/17 06:39:21;;;;;;;10.07;9.17;;;11.30;99.90;;;;;;4923278;29;20200;-78
2022/10/17 06:41:58;;;;;;;13.37;12.47;;;11.60;99.90;;;;;;4920196;29;20206;-78
2022/10/17 06:44:40;;;;;;;12.97;12.07;;;11.90;99.90;;;;;;4919765;29;20227;-79
2022/10/17 06:47:27;;;;;;;10.83;9.87;;;12.00;99.90;;;;;;4936688;29;20721;-80
2022/10/17 06:49:58;;;;;;;9.40;8.60;;;12.10;99.90;;;;;;4923728;29;20205;-78
2022/10/17 06:52:31;;;;;;;13.10;12.10;;;12.30;99.90;;;;;;4920582;29;20445;-80
2022/10/17 06:55:18;;;;;;;6.03;4.50;;;12.40;99.90;;;;;;4947369;29;20249;-80
2022/10/17 06:57:57;;;;;;;4.93;4.43;;;12.50;99.90;;;;;;4924701;29;20611;-79
2022/10/17 07:00:42;;;;;;;5.50;5.00;;;12.70;99.90;;;;;;4945825;28;20209;-80
2022/10/17 07:03:11;;;;;;;8.20;7.60;;;12.80;99.90;;;;;;4926010;29;20234;-79
2022/10/17 07:05:38;;;;;;;6.97;6.47;;;12.80;99.90;;;;;;4928092;28;20255;-79
2022/10/17 07:08:05;;;;;;;11.37;10.67;;;12.80;99.90;;;;;;4927882;28;20293;-79
2022/10/17 07:10:36;;;;;;;5.40;4.20;;;12.80;99.90;;;;;;4930657;28;20229;-79
2022/10/17 07:13:05;;;;;;;10.27;9.63;;;12.80;99.90;;;;;;4919519;29;20661;-79
2022/10/17 07:15:33;;;;;;;9.53;8.87;;;12.80;99.90;;;;;;4921175;29;20300;-79
2022/10/17 07:18:00;;;;;;;7.90;7.40;;;12.80;99.90;;;;;;4919639;29;20258;-81
2022/10/17 07:20:28;;;;;;;12.07;11.27;;;12.90;99.90;;;;;;4924552;29;20584;-78
2022/10/17 07:22:56;;;;;;;11.27;10.40;;;13.00;99.90;;;;;;4926079;29;20209;-80
2022/10/17 07:25:24;;;;;;;12.00;11.30;;;13.30;99.90;;;;;;4920939;29;20209;-79
2022/10/17 07:27:56;;;;;;;4.90;4.17;;;13.60;99.90;;;;;;4924849;29;20254;-80
2022/10/17 07:30:24;;;;;;;12.40;11.40;;;14.10;99.90;;;;;;4928242;29;21702;-80
2022/10/17 07:32:57;;;;;;;7.93;7.30;;;14.60;99.90;;;;;;4922611;29;20207;-80
2022/10/17 07:35:24;;;;;;;12.60;11.40;;;15.10;99.90;;;;;;4921291;29;20249;-81
2022/10/17 07:37:51;;;;;;;8.97;8.33;;;15.60;99.90;;;;;;4923085;29;20285;-80
2022/10/17 07:40:20;;;;;;;5.37;4.90;;;16.10;99.90;;;;;;4929475;29;20204;-81
2022/10/17 07:42:48;;;;;;;11.60;10.80;;;16.60;99.90;;;;;;4931567;29;20205;-81
2022/10/17 07:45:18;;;;;;;11.43;10.63;;;17.00;99.90;;;;;;4921571;29;20199;-81
2022/10/17 07:47:48;;;;;;;11.97;11.17;;;17.30;99.90;;;;;;4931682;29;20194;-81
2022/10/17 07:50:16;;;;;;;12.33;11.10;;;17.50;99.90;;;;;;4921290;28;20668;-80
2022/10/17 07:52:43;;;;;;;9.37;8.57;;;17.80;99.90;;;;;;4926317;29;20190;-81
2022/10/17 07:55:10;;;;;;;4.60;4.20;;;18.10;99.90;;;;;;4926929;29;20219;-81
2022/10/17 07:57:39;;;;;;;11.27;10.10;;;18.40;99.90;;;;;;4926710;29;20220;-81
2022/10/17 08:00:07;;;;;;;10.90;10.00;;;18.70;99.90;;;;;;4946327;28;20196;-81
2022/10/17 08:02:39;;;;;;;7.17;3.73;;;19.00;99.90;;;;;;4944407;28;20701;-81
2022/10/17 08:05:08;;;;;;;5.13;3.70;;;19.20;99.90;;;;;;4927104;28;20204;-81
2022/10/17 08:07:35;;;;;;;10.63;9.87;;;19.10;99.90;;;;;;4918774;29;20217;-81
2022/10/17 08:10:02;;;;;;;6.80;3.70;;;19.10;99.90;;;;;;4944138;29;20659;-81
2022/10/17 08:12:31;;;;;;;3.83;3.50;;;19.10;99.90;;;;;;4930835;29;20206;-81
2022/10/17 08:14:58;;;;;;;6.93;4.60;;;19.30;99.90;;;;;;4946331;28;20209;-81
2022/10/17 08:17:25;;;;;;;11.20;10.33;;;19.60;99.90;;;;;;4926870;29;20282;-81
2022/10/17 08:19:52;;;;;;;11.43;10.63;;;19.90;99.90;;;;;;4927122;29;20721;-80
2022/10/17 08:22:22;;;;;;;10.67;9.87;;;20.20;99.90;;;;;;4938349;28;20211;-80
2022/10/17 08:24:49;;;;;;;10.67;9.97;;;20.40;99.90;;;;;;4943098;28;20196;-82
2022/10/17 08:27:22;;;;;;;10.50;9.70;;;20.40;99.90;;;;;;4946170;29;20328;-82
2022/10/17 08:29:51;;;;;;;10.40;9.70;;;20.50;99.90;;;;;;4943680;29;20278;-80
2022/10/17 08:32:19;;;;;;;12.67;11.53;;;20.60;99.90;;;;;;4925142;29;20218;-81
2022/10/17 08:34:46;;;;;;;10.00;8.97;;;20.80;99.90;;;;;;4945325;28;20688;-80
2022/10/17 08:37:13;;;;;;;6.03;5.33;;;20.90;99.90;;;;;;4930256;28;20226;-80
2022/10/17 08:39:41;;;;;;;4.30;3.90;;;21.00;99.90;;;;;;4921957;28;20227;-79
2022/10/17 08:42:30;;;;;;;11.37;10.43;;;21.00;99.90;;;;;;4922951;29;20203;-80
2022/10/17 08:45:13;;;;;;;9.73;8.83;;;21.10;99.90;;;;;;4939578;29;20191;-80
2022/10/17 08:47:43;;;;;;;4.00;3.40;;;21.20;99.90;;;;;;4929404;29;20226;-81
2022/10/17 08:50:15;;;;;;;8.07;7.47;;;21.30;99.90;;;;;;4926971;29;20207;-80
2022/10/17 08:52:47;;;;;;;9.23;8.50;;;21.30;99.90;;;;;;4932322;29;20207;-80
2022/10/17 08:55:20;;;;;;;11.13;10.33;;;21.50;99.90;;;;;;4956121;29;20217;-80
2022/10/17 08:57:48;;;;;;;11.03;10.20;;;21.50;99.90;;;;;;4957695;29;20198;-80
2022/10/17 09:00:18;;;;;;;4.90;3.23;;;21.50;99.90;;;;;;4924965;29;20211;-80
2022/10/17 09:02:56;;;;;;;10.37;9.73;;;21.50;99.90;;;;;;4942293;28;20312;-80
2022/10/17 09:05:37;;;;;;;3.63;3.33;;;21.70;99.90;;;;;;4947875;28;20197;-80
2022/10/17 09:08:14;;;;;;;4.67;3.87;;;21.80;99.90;;;;;;4924378;29;20206;-80
2022/10/17 09:10:52;;;;;;;4.03;3.70;;;22.00;99.90;;;;;;4935440;28;20210;-80
2022/10/17 09:13:29;;;;;;;6.50;6.00;;;22.20;99.90;;;;;;4931868;29;20214;-80
2022/10/17 09:16:14;;;;;;;9.90;9.00;;;22.30;99.90;;;;;;4928448;29;20249;-80
2022/10/17 09:18:45;;;;;;;5.83;5.37;;;22.50;99.90;;;;;;4929959;29;20220;-81
2022/10/17 09:21:20;;;;;;;3.93;3.20;;;22.70;99.90;;;;;;4948261;29;20206;-80
2022/10/17 09:23:53;;;;;;;3.80;3.10;;;22.60;99.90;;;;;;4922388;29;20250;-80
2022/10/17 09:26:21;;;;;;;3.63;3.17;;;22.70;99.90;;;;;;4920780;29;20223;-80
2022/10/17 09:28:54;;;;;;;5.37;4.87;;;22.70;99.90;;;;;;4939418;29;20201;-79
2022/10/17 09:31:25;;;;;;;8.80;7.40;;;22.90;99.90;;;;;;4941499;29;20206;-79
2022/10/17 09:33:55;;;;;;;5.30;4.80;;;23.00;99.90;;;;;;4944075;28;20195;-80
2022/10/17 09:36:27;;;;;;;5.77;5.37;;;23.10;99.90;;;;;;4932198;29;20230;-81
2022/10/17 09:38:56;;;;;;;4.40;4.03;;;23.10;99.90;;;;;;4932998;29;20220;-80
2022/10/17 09:41:36;;;;;;;4.13;3.80;;;23.10;99.90;;;;;;4947642;29;20218;-80
2022/10/17 09:44:14;;;;;;;4.33;3.77;;;23.10;99.90;;;;;;4928577;29;20207;-81
2022/10/17 09:46:46;;;;;;;6.47;5.97;;;23.20;99.90;;;;;;4930190;29;20270;-80
2022/10/17 09:49:19;;;;;;;8.97;8.37;;;23.10;99.90;;;;;;4929676;29;20219;-80
2022/10/17 09:51:47;;;;;;;5.03;4.63;;;23.10;99.90;;;;;;4924923;29;20210;-79
2022/10/17 09:54:20;;;;;;;6.57;4.47;;;23.20;99.90;;;;;;4928539;29;20195;-80
2022/10/17 09:57:00;;;;;;;5.73;5.20;;;23.30;99.90;;;;;;4925054;29;20231;-81
2022/10/17 09:59:33;;;;;;;7.17;6.57;;;23.30;99.90;;;;;;4941975;28;20200;-80
2022/10/17 10:02:17;;;;;;;6.30;5.80;;;23.20;99.90;;;;;;4929951;29;20211;-80
2022/10/17 10:04:59;;;;;;;9.47;8.00;;;23.30;99.90;;;;;;4947000;28;20199;-80
2022/10/17 10:07:28;;;;;;;8.20;7.70;;;23.10;99.90;;;;;;4949968;29;20218;-80
2022/10/17 10:09:56;;;;;;;8.00;7.40;;;23.00;99.90;;;;;;4925897;29;20208;-81
2022/10/17 10:12:26;;;;;;;7.23;6.70;;;23.00;99.90;;;;;;4950325;28;20215;-81
2022/10/17 10:14:53;;;;;;;8.60;7.83;;;23.00;99.90;;;;;;4934199;29;20698;-80
2022/10/17 10:17:40;;;;;;;6.40;6.00;;;23.10;99.90;;;;;;4925832;29;20241;-80
2022/10/17 10:20:27;;;;;;;3.70;3.30;;;23.00;99.90;;;;;;4946146;29;20195;-80
2022/10/17 10:23:16;;;;;;;3.37;3.07;;;23.00;99.90;;;;;;4940199;28;20200;-79
2022/10/17 10:25:57;;;;;;;5.13;3.10;;;23.10;99.90;;;;;;4935272;29;20814;-80
2022/10/17 10:28:31;;;;;;;5.77;5.27;;;23.20;99.90;;;;;;4947893;28;20209;-80
2022/10/17 10:31:00;;;;;;;8.83;8.20;;;23.30;99.90;;;;;;4922298;29;20200;-81
2022/10/17 10:33:29;;;;;;;7.60;7.10;;;23.30;99.90;;;;;;4953224;29;20282;-81
2022/10/17 10:36:00;;;;;;;9.27;8.60;;;23.30;99.90;;;;;;4972851;23;20241;-79
2022/10/17 10:38:27;;;;;;;9.60;8.90;;;23.30;99.90;;;;;;4953576;28;20198;-79
2022/10/17 10:40:56;;;;;;;9.10;8.50;;;23.30;99.90;;;;;;4937171;29;20202;-79
2022/10/17 10:43:35;;;;;;;7.97;7.47;;;23.30;99.90;;;;;;4936962;29;20198;-79
2022/10/17 10:46:05;;;;;;;10.30;9.60;;;23.30;99.90;;;;;;4940847;29;20219;-78
2022/10/17 10:48:34;;;;;;;9.53;8.83;;;23.30;99.90;;;;;;4923715;29;20205;-79
2022/10/17 10:51:05;;;;;;;9.63;9.03;;;23.30;99.90;;;;;;4919482;29;20253;-78
2022/10/17 10:53:39;;;;;;;10.00;9.10;;;23.30;99.90;;;;;;4918367;29;20207;-80
2022/10/17 10:56:13;;;;;;;9.90;9.10;;;23.20;99.90;;;;;;4924631;29;20230;-79
2022/10/17 10:58:52;;;;;;;9.80;9.00;;;23.20;99.90;;;;;;4920755;29;20679;-79
2022/10/17 11:01:27;;;;;;;9.77;9.07;;;23.20;99.90;;;;;;4929132;29;20735;-79
2022/10/17 11:04:13;;;;;;;9.70;9.10;;;23.20;99.90;;;;;;4940249;29;20203;-79
2022/10/17 11:06:44;;;;;;;9.63;9.03;;;23.20;99.90;;;;;;4937982;29;20199;-79
2022/10/17 11:09:17;;;;;;;9.57;8.97;;;23.20;99.90;;;;;;4924297;29;20202;-81
2022/10/17 11:11:48;;;;;;;9.27;8.67;;;23.20;99.90;;;;;;4919520;29;20199;-79
2022/10/17 11:14:22;;;;;;;8.80;8.30;;;23.10;99.90;;;;;;4941482;29;20193;-79
2022/10/17 11:16:56;;;;;;;9.30;8.80;;;23.10;99.90;;;;;;4940941;29;20731;-79
2022/10/17 11:19:28;;;;;;;9.13;8.53;;;23.10;99.90;;;;;;4948106;29;20617;-79
2022/10/17 11:22:04;;;;;;;9.00;8.50;;;23.00;99.90;;;;;;4923104;29;20199;-79
2022/10/17 11:24:37;;;;;;;8.63;8.13;;;23.00;99.90;;;;;;4937526;29;20198;-79
2022/10/17 11:27:06;;;;;;;6.80;6.30;;;22.90;99.90;;;;;;4938592;29;20195;-79
2022/10/17 11:29:38;;;;;;;3.10;2.90;;;22.80;99.90;;;;;;4941758;29;20608;-79
2022/10/17 11:32:09;;;;;;;3.53;3.23;;;22.70;99.90;;;;;;4927450;29;20306;-79
2022/10/17 11:34:40;;;;;;;3.63;3.33;;;22.70;99.90;;;;;;4920668;29;20240;-80
2022/10/17 11:37:14;;;;;;;3.20;3.00;;;22.60;99.90;;;;;;4935868;29;20211;-79
2022/10/17 11:39:48;;;;;;;3.47;3.13;;;22.60;99.90;;;;;;4923274;29;20217;-79
2022/10/17 11:42:20;;;;;;;3.40;3.10;;;22.60;99.90;;;;;;4941592;29;20669;-79
2022/10/17 11:44:51;;;;;;;5.77;5.37;;;22.60;99.90;;;;;;4938718;29;20211;-79
2022/10/17 11:47:35;;;;;;;6.23;5.77;;;22.60;99.90;;;;;;4919182;29;20210;-79
2022/10/17 11:50:11;;;;;;;3.40;3.10;;;22.60;99.90;;;;;;4925971;29;20205;-78
2022/10/17 11:52:42;;;;;;;3.63;3.37;;;22.60;99.90;;;;;;4939372;29;20202;-78
2022/10/17 11:55:15;;;;;;;7.47;6.97;;;22.60;99.90;;;;;;4917509;29;20224;-78
2022/10/17 11:57:52;;;;;;;7.73;7.30;;;22.60;99.90;;;;;;4948682;29;20225;-77
2022/10/17 12:00:28;;;;;;;3.17;2.97;;;22.50;99.90;;;;;;4937779;29;20207;-77
2022/10/17 12:03:06;;;;;;;3.60;3.30;;;22.50;99.90;;;;;;4938010;29;20200;-77
2022/10/17 12:05:40;;;;;;;7.87;7.37;;;22.60;99.90;;;;;;4916792;29;20222;-77
2022/10/17 12:08:13;;;;;;;8.40;7.90;;;22.60;99.90;;;;;;4924766;29;20210;-76
2022/10/17 12:10:46;;;;;;;6.23;5.70;;;22.60;99.90;;;;;;4937212;29;20187;-77
2022/10/17 12:13:51;;;;;;;4.40;4.00;;;22.60;99.90;;;;;;4919495;29;20212;-77
2022/10/17 12:16:50;;;;;;;6.73;6.23;;;22.60;99.90;;;;;;4944223;29;20242;-77
2022/10/17 12:19:29;;;;;;;7.40;6.73;;;22.70;99.90;;;;;;4943875;29;20207;-77
2022/10/17 12:21:59;;;;;;;5.43;5.03;;;22.70;99.90;;;;;;4939095;29;20214;-77
2022/10/17 12:24:36;;;;;;;6.03;5.47;;;22.80;99.90;;;;;;4922596;29;20212;-77
2022/10/17 12:27:27;;;;;;;8.40;7.80;;;22.80;99.90;;;;;;4938147;29;20604;-77
2022/10/17 12:29:59;;;;;;;5.80;5.20;;;22.80;99.90;;;;;;4934613;29;20683;-78
2022/10/17 12:32:28;;;;;;;5.30;4.90;;;22.90;99.90;;;;;;4930435;29;20210;-77
2022/10/17 12:34:57;;;;;;;7.53;7.03;;;22.90;99.90;;;;;;4924992;29;20233;-77
2022/10/17 12:38:15;;;;;;;9.30;8.67;;;22.90;99.90;;;;;;4936736;29;20592;-77
2022/10/17 12:40:56;;;;;;;7.23;6.10;;;22.90;99.90;;;;;;4927177;29;20211;-77
2022/10/17 12:43:56;;;;;;;5.40;3.30;;;22.90;99.90;;;;;;4932647;29;20266;-77
2022/10/17 12:46:55;;;;;;;3.13;2.87;;;23.00;99.90;;;;;;4931695;29;20227;-77
2022/10/17 12:49:40;;;;;;;4.50;2.83;;;23.10;99.90;;;;;;4930743;29;20206;-77
2022/10/17 12:52:18;;;;;;;2.73;2.50;;;23.10;99.90;;;;;;4945216;29;20202;-77
2022/10/17 12:54:48;;;;;;;2.50;2.40;;;23.10;99.90;;;;;;4922859;29;20223;-77
2022/10/17 12:57:20;;;;;;;4.30;2.60;;;23.10;99.90;;;;;;4942413;29;20238;-77
2022/10/17 12:59:48;;;;;;;2.90;2.60;;;23.10;99.90;;;;;;4937862;29;20203;-77
2022/10/17 13:02:20;;;;;;;6.07;5.57;;;23.10;99.90;;;;;;4915673;29;20255;-77
2022/10/17 13:04:50;;;;;;;4.53;3.10;;;23.20;99.90;;;;;;4936160;29;20224;-77